sensor_id;sensor_type;location;lat;lon;timestamp;temperature;humidity
15160;DHT22;7680;48.800;9.680;2023-05-08T00:00:47;14.20;99.90
15160;DHT22;7680;48.800;9.680;2023-05-08T00:03:20;14.10;99.90
15160;DHT22;7680;48.800;9.680;2023-05-08T00:05:54;14.10;99.90
15160;DHT22;7680;48.800;9.680;2023-05-08T00:08:27;14.10;99.90
15160;DHT22;7680;48.800;9.680;2023-05-08T00:11:00;14.10;99.90
15160;DHT22;7680;48.800;9.680;2023-05-08T00:13:33;14.10;99.90
15160;DHT22;7680;48.800;9.680;2023-05-08T00:16:08;14.10;99.90
15160;DHT22;7680;48.800;9.680;2023-05-08T00:18:42;14.10;99.90
15160;DHT22;7680;48.800;9.680;2023-05-08T00:21:15;14.10;99.90
15160;DHT22;7680;48.800;9.680;2023-05-08T00:23:48;14.10;99.90
15160;DHT22;7680;48.800;9.680;2023-05-08T00:26:21;14.20;99.90
15160;DHT22;7680;48.800;9.680;2023-05-08T00:28:54;14.20;99.90
15160;DHT22;7680;48.800;9.680;2023-05-08T00:31:28;14.20;99.90
15160;DHT22;7680;48.800;9.680;2023-05-08T00:34:01;14.20;99.90
15160;DHT22;7680;48.800;9.680;2023-05-08T00:36:34;14.30;99.90
15160;DHT22;7680;48.800;9.680;2023-05-08T00:39:07;14.30;99.90
15160;DHT22;7680;48.800;9.680;2023-05-08T00:41:40;14.20;99.90
15160;DHT22;7680;48.800;9.680;2023-05-08T00:44:13;14.30;99.90
15160;DHT22;7680;48.800;9.680;2023-05-08T00:46:48;14.20;99.90
15160;DHT22;7680;48.800;9.680;2023-05-08T00:49:21;14.20;99.90
15160;DHT22;7680;48.800;9.680;2023-05-08T00:51:55;14.20;99.90
15160;DHT22;7680;48.800;9.680;2023-05-08T00:54:28;14.20;99.90
15160;DHT22;7680;48.800;9.680;2023-05-08T00:57:02;14.10;99.90
15160;DHT22;7680;48.800;9.680;2023-05-08T00:59:38;14.20;99.90
15160;DHT22;7680;48.800;9.680;2023-05-08T01:02:14;14.20;99.90
15160;DHT22;7680;48.800;9.680;2023-05-08T01:04:48;14.20;99.90
15160;DHT22;7680;48.800;9.680;2023-05-08T01:07:22;14.20;99.90
15160;DHT22;7680;48.800;9.680;2023-05-08T01:09:55;14.10;99.90
15160;DHT22;7680;48.800;9.680;2023-05-08T01:12:35;14.20;99.90
15160;DHT22;7680;48.800;9.680;2023-05-08T01:15:15;14.10;99.90
15160;DHT22;7680;48.800;9.680;2023-05-08T01:17:59;14.10;99.90
15160;DHT22;7680;48.800;9.680;2023-05-08T01:20:47;14.00;99.90
15160;DHT22;7680;48.800;9.680;2023-05-08T01:23:48;14.10;99.90
15160;DHT22;7680;48.800;9.680;2023-05-08T01:26:46;14.10;99.90
15160;DHT22;7680;48.800;9.680;2023-05-08T01:29:58;14.10;99.90
15160;DHT22;7680;48.800;9.680;2023-05-08T01:32:42;14.00;99.90
15160;DHT22;7680;48.800;9.680;2023-05-08T01:35:23;14.00;99.90
15160;DHT22;7680;48.800;9.680;2023-05-08T01:38:05;13.90;99.90
15160;DHT22;7680;48.800;9.680;2023-05-08T01:40:51;13.90;99.90
15160;DHT22;7680;48.800;9.680;2023-05-08T01:43:30;13.80;99.90
15160;DHT22;7680;48.800;9.680;2023-05-08T01:46:11;13.90;99.90
15160;DHT22;7680;48.800;9.680;2023-05-08T01:48:50;13.90;99.90
15160;DHT22;7680;48.800;9.680;2023-05-08T01:51:27;13.90;99.90
15160;DHT22;7680;48.800;9.680;2023-05-08T01:54:08;13.80;99.90
15160;DHT22;7680;48.800;9.680;2023-05-08T01:56:44;13.90;99.90
15160;DHT22;7680;48.800;9.680;2023-05-08T01:59:20;13.90;99.90
15160;DHT22;7680;48.800;9.680;2023-05-08T02:01:56;13.90;99.90
15160;DHT22;7680;48.800;9.680;2023-05-08T02:04:32;14.00;99.90
15160;DHT22;7680;48.800;9.680;2023-05-08T02:07:06;14.00;99.90
15160;DHT22;7680;48.800;9.680;2023-05-08T02:09:40;14.00;99.90
15160;DHT22;7680;48.800;9.680;2023-05-08T02:12:15;14.00;99.90
15160;DHT22;7680;48.800;9.680;2023-05-08T02:14:51;13.90;99.90
15160;DHT22;7680;48.800;9.680;2023-05-08T02:17:26;14.00;99.90
15160;DHT22;7680;48.800;9.680;2023-05-08T02:20:02;14.00;99.90
15160;DHT22;7680;48.800;9.680;2023-05-08T02:22:36;14.00;99.90
15160;DHT22;7680;48.800;9.680;2023-05-08T02:25:11;13.90;99.90
15160;DHT22;7680;48.800;9.680;2023-05-08T02:27:47;13.90;99.90
15160;DHT22;7680;48.800;9.680;2023-05-08T02:30:23;14.00;99.90
15160;DHT22;7680;48.800;9.680;2023-05-08T02:32:58;14.00;99.90
15160;DHT22;7680;48.800;9.680;2023-05-08T02:35:34;14.00;99.90
15160;DHT22;7680;48.800;9.680;2023-05-08T02:38:09;14.10;99.90
15160;DHT22;7680;48.800;9.680;2023-05-08T02:40:47;14.10;99.90
15160;DHT22;7680;48.800;9.680;2023-05-08T02:43:22;14.10;99.90
15160;DHT22;7680;48.800;9.680;2023-05-08T02:46:00;14.10;99.90
15160;DHT22;7680;48.800;9.680;2023-05-08T02:48:44;14.10;99.90
15160;DHT22;7680;48.800;9.680;2023-05-08T02:51:29;13.90;99.90
15160;DHT22;7680;48.800;9.680;2023-05-08T02:54:12;14.00;99.90
15160;DHT22;7680;48.800;9.680;2023-05-08T02:56:54;14.00;99.90
15160;DHT22;7680;48.800;9.680;2023-05-08T02:59:35;14.00;99.90
15160;DHT22;7680;48.800;9.680;2023-05-08T03:02:14;14.00;99.90
15160;DHT22;7680;48.800;9.680;2023-05-08T03:04:50;14.00;99.90
15160;DHT22;7680;48.800;9.680;2023-05-08T03:07:28;14.10;99.90
15160;DHT22;7680;48.800;9.680;2023-05-08T03:10:04;14.00;99.90
15160;DHT22;7680;48.800;9.680;2023-05-08T03:12:44;13.90;99.90
15160;DHT22;7680;48.800;9.680;2023-05-08T03:15:24;13.90;99.90
15160;DHT22;7680;48.800;9.680;2023-05-08T03:18:01;13.90;99.90
15160;DHT22;7680;48.800;9.680;2023-05-08T03:20:42;13.90;99.90
15160;DHT22;7680;48.800;9.680;2023-05-08T03:23:20;13.90;99.90
15160;DHT22;7680;48.800;9.680;2023-05-08T03:25:54;13.90;99.90
15160;DHT22;7680;48.800;9.680;2023-05-08T03:28:30;13.90;99.90
15160;DHT22;7680;48.800;9.680;2023-05-08T03:31:05;13.90;99.90
15160;DHT22;7680;48.800;9.680;2023-05-08T03:33:40;13.90;99.90
15160;DHT22;7680;48.800;9.680;2023-05-08T03:36:14;13.90;99.90
15160;DHT22;7680;48.800;9.680;2023-05-08T03:38:49;14.00;99.90
15160;DHT22;7680;48.800;9.680;2023-05-08T03:41:24;14.00;99.90
15160;DHT22;7680;48.800;9.680;2023-05-08T03:43:57;14.00;99.90
15160;DHT22;7680;48.800;9.680;2023-05-08T03:46:32;14.00;99.90
15160;DHT22;7680;48.800;9.680;2023-05-08T03:49:08;14.00;99.90
15160;DHT22;7680;48.800;9.680;2023-05-08T03:51:41;14.00;99.90
15160;DHT22;7680;48.800;9.680;2023-05-08T03:54:16;14.00;99.90
15160;DHT22;7680;48.800;9.680;2023-05-08T03:56:49;14.00;99.90
15160;DHT22;7680;48.800;9.680;2023-05-08T03:59:29;13.90;99.90
15160;DHT22;7680;48.800;9.680;2023-05-08T04:02:16;13.90;99.90
15160;DHT22;7680;48.800;9.680;2023-05-08T04:04:59;13.90;99.90
15160;DHT22;7680;48.800;9.680;2023-05-08T04:07:37;13.90;99.90
15160;DHT22;7680;48.800;9.680;2023-05-08T04:10:20;13.90;99.90
15160;DHT22;7680;48.800;9.680;2023-05-08T04:13:02;13.90;99.90
15160;DHT22;7680;48.800;9.680;2023-05-08T04:15:42;13.90;99.90
15160;DHT22;7680;48.800;9.680;2023-05-08T04:18:17;13.90;99.90
15160;DHT22;7680;48.800;9.680;2023-05-08T04:20:55;13.80;99.90
15160;DHT22;7680;48.800;9.680;2023-05-08T04:23:29;13.90;99.90
15160;DHT22;7680;48.800;9.680;2023-05-08T04:26:05;13.90;99.90
15160;DHT22;7680;48.800;9.680;2023-05-08T04:28:39;13.90;99.90
15160;DHT22;7680;48.800;9.680;2023-05-08T04:31:13;13.90;99.90
15160;DHT22;7680;48.800;9.680;2023-05-08T04:33:48;13.80;99.90
15160;DHT22;7680;48.800;9.680;2023-05-08T04:36:21;13.80;99.90
15160;DHT22;7680;48.800;9.680;2023-05-08T04:38:56;13.80;99.90
15160;DHT22;7680;48.800;9.680;2023-05-08T04:41:31;13.80;99.90
15160;DHT22;7680;48.800;9.680;2023-05-08T04:44:05;13.70;99.90
15160;DHT22;7680;48.800;9.680;2023-05-08T04:46:38;13.70;99.90
15160;DHT22;7680;48.800;9.680;2023-05-08T04:49:11;13.70;99.90
15160;DHT22;7680;48.800;9.680;2023-05-08T04:51:44;13.70;99.90
15160;DHT22;7680;48.800;9.680;2023-05-08T04:54:17;13.70;99.90
15160;DHT22;7680;48.800;9.680;2023-05-08T04:56:52;13.80;99.90
15160;DHT22;7680;48.800;9.680;2023-05-08T04:59:25;13.80;99.90
15160;DHT22;7680;48.800;9.680;2023-05-08T05:01:58;13.80;99.90
15160;DHT22;7680;48.800;9.680;2023-05-08T05:04:33;13.90;99.90
15160;DHT22;7680;48.800;9.680;2023-05-08T05:07:06;13.90;99.90
15160;DHT22;7680;48.800;9.680;2023-05-08T05:09:39;13.90;99.90
15160;DHT22;7680;48.800;9.680;2023-05-08T05:12:13;14.00;99.90
15160;DHT22;7680;48.800;9.680;2023-05-08T05:14:46;13.90;99.90
15160;DHT22;7680;48.800;9.680;2023-05-08T05:17:19;13.90;99.90
15160;DHT22;7680;48.800;9.680;2023-05-08T05:19:52;14.00;99.90
15160;DHT22;7680;48.800;9.680;2023-05-08T05:22:25;14.00;99.90
15160;DHT22;7680;48.800;9.680;2023-05-08T05:24:59;14.10;99.90
15160;DHT22;7680;48.800;9.680;2023-05-08T05:27:35;14.10;99.90
15160;DHT22;7680;48.800;9.680;2023-05-08T05:30:08;14.10;99.90
15160;DHT22;7680;48.800;9.680;2023-05-08T05:32:42;14.10;99.90
15160;DHT22;7680;48.800;9.680;2023-05-08T05:35:15;14.10;99.90
15160;DHT22;7680;48.800;9.680;2023-05-08T05:37:48;14.10;99.90
15160;DHT22;7680;48.800;9.680;2023-05-08T05:40:21;14.10;99.90
15160;DHT22;7680;48.800;9.680;2023-05-08T05:42:56;14.20;99.90
15160;DHT22;7680;48.800;9.680;2023-05-08T05:45:29;14.20;99.90
15160;DHT22;7680;48.800;9.680;2023-05-08T05:48:04;14.20;99.90
15160;DHT22;7680;48.800;9.680;2023-05-08T05:50:38;14.00;99.90
15160;DHT22;7680;48.800;9.680;2023-05-08T05:53:11;14.10;99.90
15160;DHT22;7680;48.800;9.680;2023-05-08T05:55:44;14.00;99.90
15160;DHT22;7680;48.800;9.680;2023-05-08T05:58:18;14.00;99.90
15160;DHT22;7680;48.800;9.680;2023-05-08T06:00:51;14.10;99.90
15160;DHT22;7680;48.800;9.680;2023-05-08T06:03:24;14.10;99.90
15160;DHT22;7680;48.800;9.680;2023-05-08T06:05:57;14.20;99.90
15160;DHT22;7680;48.800;9.680;2023-05-08T06:08:30;14.30;99.90
15160;DHT22;7680;48.800;9.680;2023-05-08T06:11:03;14.20;99.90
15160;DHT22;7680;48.800;9.680;2023-05-08T06:13:39;14.20;99.90
15160;DHT22;7680;48.800;9.680;2023-05-08T06:16:12;14.40;99.90
15160;DHT22;7680;48.800;9.680;2023-05-08T06:18:46;14.40;99.90
15160;DHT22;7680;48.800;9.680;2023-05-08T06:21:19;14.40;99.90
15160;DHT22;7680;48.800;9.680;2023-05-08T06:23:52;14.50;99.90
15160;DHT22;7680;48.800;9.680;2023-05-08T06:26:25;14.60;99.90
15160;DHT22;7680;48.800;9.680;2023-05-08T06:29:00;14.60;99.90
15160;DHT22;7680;48.800;9.680;2023-05-08T06:31:33;14.60;99.90
15160;DHT22;7680;48.800;9.680;2023-05-08T06:34:06;14.50;99.90
15160;DHT22;7680;48.800;9.680;2023-05-08T06:36:39;14.50;99.90
15160;DHT22;7680;48.800;9.680;2023-05-08T06:39:12;14.50;99.90
15160;DHT22;7680;48.800;9.680;2023-05-08T06:41:46;14.50;99.90
15160;DHT22;7680;48.800;9.680;2023-05-08T06:44:20;14.60;99.90
15160;DHT22;7680;48.800;9.680;2023-05-08T06:46:53;14.70;99.90
15160;DHT22;7680;48.800;9.680;2023-05-08T06:49:27;14.60;99.90
15160;DHT22;7680;48.800;9.680;2023-05-08T06:52:00;14.70;99.90
15160;DHT22;7680;48.800;9.680;2023-05-08T06:54:33;14.80;99.90
15160;DHT22;7680;48.800;9.680;2023-05-08T06:57:06;14.80;99.90
15160;DHT22;7680;48.800;9.680;2023-05-08T06:59:40;14.80;99.90
15160;DHT22;7680;48.800;9.680;2023-05-08T07:02:13;14.90;99.90
15160;DHT22;7680;48.800;9.680;2023-05-08T07:04:47;14.90;99.90
15160;DHT22;7680;48.800;9.680;2023-05-08T07:07:20;14.90;99.90
15160;DHT22;7680;48.800;9.680;2023-05-08T07:09:53;15.00;99.90
15160;DHT22;7680;48.800;9.680;2023-05-08T07:12:26;14.90;99.90
15160;DHT22;7680;48.800;9.680;2023-05-08T07:15:00;15.00;99.90
15160;DHT22;7680;48.800;9.680;2023-05-08T07:17:53;15.10;99.90
15160;DHT22;7680;48.800;9.680;2023-05-08T07:20:26;15.20;99.90
15160;DHT22;7680;48.800;9.680;2023-05-08T07:22:59;15.20;99.90
15160;DHT22;7680;48.800;9.680;2023-05-08T07:25:32;15.20;99.90
15160;DHT22;7680;48.800;9.680;2023-05-08T07:28:05;15.20;99.90
15160;DHT22;7680;48.800;9.680;2023-05-08T07:30:40;15.30;99.90
15160;DHT22;7680;48.800;9.680;2023-05-08T07:33:13;15.30;99.90
15160;DHT22;7680;48.800;9.680;2023-05-08T07:35:46;15.30;99.90
15160;DHT22;7680;48.800;9.680;2023-05-08T07:38:20;15.30;99.90
15160;DHT22;7680;48.800;9.680;2023-05-08T07:40:53;15.40;99.90
15160;DHT22;7680;48.800;9.680;2023-05-08T07:43:28;15.40;99.90
15160;DHT22;7680;48.800;9.680;2023-05-08T07:46:02;15.40;99.90
15160;DHT22;7680;48.800;9.680;2023-05-08T07:48:35;15.30;99.90
15160;DHT22;7680;48.800;9.680;2023-05-08T07:51:08;15.40;99.90
15160;DHT22;7680;48.800;9.680;2023-05-08T07:53:42;15.50;99.90
15160;DHT22;7680;48.800;9.680;2023-05-08T07:56:15;15.50;99.90
15160;DHT22;7680;48.800;9.680;2023-05-08T07:58:48;15.60;99.90
15160;DHT22;7680;48.800;9.680;2023-05-08T08:01:23;15.60;99.90
15160;DHT22;7680;48.800;9.680;2023-05-08T08:03:56;15.50;99.90
15160;DHT22;7680;48.800;9.680;2023-05-08T08:06:29;15.70;99.90
15160;DHT22;7680;48.800;9.680;2023-05-08T08:09:02;15.80;99.90
15160;DHT22;7680;48.800;9.680;2023-05-08T08:11:35;15.80;99.90
15160;DHT22;7680;48.800;9.680;2023-05-08T08:14:08;15.90;99.90
15160;DHT22;7680;48.800;9.680;2023-05-08T08:16:42;16.00;99.90
15160;DHT22;7680;48.800;9.680;2023-05-08T08:19:16;16.10;99.90
15160;DHT22;7680;48.800;9.680;2023-05-08T08:21:49;16.10;99.90
15160;DHT22;7680;48.800;9.680;2023-05-08T08:24:22;16.10;99.90
15160;DHT22;7680;48.800;9.680;2023-05-08T08:26:55;16.20;99.90
15160;DHT22;7680;48.800;9.680;2023-05-08T08:29:28;16.20;99.90
15160;DHT22;7680;48.800;9.680;2023-05-08T08:32:03;16.20;99.90
15160;DHT22;7680;48.800;9.680;2023-05-08T08:34:37;16.20;99.90
15160;DHT22;7680;48.800;9.680;2023-05-08T08:37:10;16.30;99.90
15160;DHT22;7680;48.800;9.680;2023-05-08T08:39:46;16.30;99.90
15160;DHT22;7680;48.800;9.680;2023-05-08T08:42:19;16.20;99.90
15160;DHT22;7680;48.800;9.680;2023-05-08T08:44:54;16.10;99.90
15160;DHT22;7680;48.800;9.680;2023-05-08T08:47:34;16.00;99.90
15160;DHT22;7680;48.800;9.680;2023-05-08T08:50:09;15.90;99.90
15160;DHT22;7680;48.800;9.680;2023-05-08T08:52:49;15.90;99.90
15160;DHT22;7680;48.800;9.680;2023-05-08T08:55:25;15.90;99.90
15160;DHT22;7680;48.800;9.680;2023-05-08T08:58:05;15.80;99.90
15160;DHT22;7680;48.800;9.680;2023-05-08T09:00:44;15.70;99.90
15160;DHT22;7680;48.800;9.680;2023-05-08T09:03:20;15.60;99.90
15160;DHT22;7680;48.800;9.680;2023-05-08T09:05:53;15.70;99.90
15160;DHT22;7680;48.800;9.680;2023-05-08T09:08:27;15.80;99.90
15160;DHT22;7680;48.800;9.680;2023-05-08T09:11:01;15.80;99.90
15160;DHT22;7680;48.800;9.680;2023-05-08T09:13:34;16.00;99.90
15160;DHT22;7680;48.800;9.680;2023-05-08T09:16:07;16.00;99.90
15160;DHT22;7680;48.800;9.680;2023-05-08T09:18:42;16.10;99.90
15160;DHT22;7680;48.800;9.680;2023-05-08T09:21:15;16.10;99.90
15160;DHT22;7680;48.800;9.680;2023-05-08T09:23:54;16.20;99.90
15160;DHT22;7680;48.800;9.680;2023-05-08T09:26:29;16.30;99.90
15160;DHT22;7680;48.800;9.680;2023-05-08T09:29:15;16.40;99.90
15160;DHT22;7680;48.800;9.680;2023-05-08T09:31:50;16.40;99.90
15160;DHT22;7680;48.800;9.680;2023-05-08T09:34:26;16.60;99.90
15160;DHT22;7680;48.800;9.680;2023-05-08T09:37:11;16.60;99.90
15160;DHT22;7680;48.800;9.680;2023-05-08T09:39:44;16.60;99.90
15160;DHT22;7680;48.800;9.680;2023-05-08T09:42:18;16.70;99.90
15160;DHT22;7680;48.800;9.680;2023-05-08T09:44:52;16.80;99.90
15160;DHT22;7680;48.800;9.680;2023-05-08T09:47:25;17.00;99.90
15160;DHT22;7680;48.800;9.680;2023-05-08T09:50:00;17.10;99.90
15160;DHT22;7680;48.800;9.680;2023-05-08T09:52:35;16.90;99.90
15160;DHT22;7680;48.800;9.680;2023-05-08T09:55:10;16.90;99.90
15160;DHT22;7680;48.800;9.680;2023-05-08T09:57:52;17.20;99.90
15160;DHT22;7680;48.800;9.680;2023-05-08T10:00:27;17.30;99.90
15160;DHT22;7680;48.800;9.680;2023-05-08T10:03:01;17.40;99.90
15160;DHT22;7680;48.800;9.680;2023-05-08T10:05:36;17.50;99.90
15160;DHT22;7680;48.800;9.680;2023-05-08T10:08:20;17.60;99.90
15160;DHT22;7680;48.800;9.680;2023-05-08T10:10:54;17.80;99.90
15160;DHT22;7680;48.800;9.680;2023-05-08T10:13:45;17.90;99.90
15160;DHT22;7680;48.800;9.680;2023-05-08T10:16:20;18.00;99.90
15160;DHT22;7680;48.800;9.680;2023-05-08T10:18:59;18.00;99.90
15160;DHT22;7680;48.800;9.680;2023-05-08T10:21:40;17.90;99.90
15160;DHT22;7680;48.800;9.680;2023-05-08T10:24:16;17.80;99.90
15160;DHT22;7680;48.800;9.680;2023-05-08T10:26:56;17.60;99.90
15160;DHT22;7680;48.800;9.680;2023-05-08T10:29:42;17.60;99.90
15160;DHT22;7680;48.800;9.680;2023-05-08T10:32:20;17.60;99.90
15160;DHT22;7680;48.800;9.680;2023-05-08T10:34:57;17.70;99.90
15160;DHT22;7680;48.800;9.680;2023-05-08T10:37:32;17.70;99.90
15160;DHT22;7680;48.800;9.680;2023-05-08T10:40:08;17.80;99.90
15160;DHT22;7680;48.800;9.680;2023-05-08T10:42:43;17.60;99.90
15160;DHT22;7680;48.800;9.680;2023-05-08T10:45:17;17.60;99.90
15160;DHT22;7680;48.800;9.680;2023-05-08T10:47:56;17.50;99.90
15160;DHT22;7680;48.800;9.680;2023-05-08T10:50:38;17.30;99.90
15160;DHT22;7680;48.800;9.680;2023-05-08T10:53:21;17.30;99.90
15160;DHT22;7680;48.800;9.680;2023-05-08T10:56:03;17.40;99.90
15160;DHT22;7680;48.800;9.680;2023-05-08T10:58:37;17.30;99.90
15160;DHT22;7680;48.800;9.680;2023-05-08T11:01:15;17.50;99.90
15160;DHT22;7680;48.800;9.680;2023-05-08T11:03:48;17.30;99.90
15160;DHT22;7680;48.800;9.680;2023-05-08T11:06:44;17.30;99.90
15160;DHT22;7680;48.800;9.680;2023-05-08T11:09:22;17.40;99.90
15160;DHT22;7680;48.800;9.680;2023-05-08T11:12:06;17.40;99.90
15160;DHT22;7680;48.800;9.680;2023-05-08T11:14:41;17.30;99.90
15160;DHT22;7680;48.800;9.680;2023-05-08T11:17:22;17.60;99.90
15160;DHT22;7680;48.800;9.680;2023-05-08T11:19:57;17.50;99.90
15160;DHT22;7680;48.800;9.680;2023-05-08T11:22:31;17.40;99.90
15160;DHT22;7680;48.800;9.680;2023-05-08T11:25:08;17.30;99.90
15160;DHT22;7680;48.800;9.680;2023-05-08T11:28:09;17.40;99.90
15160;DHT22;7680;48.800;9.680;2023-05-08T11:30:43;17.30;99.90
15160;DHT22;7680;48.800;9.680;2023-05-08T11:33:17;17.40;99.90
15160;DHT22;7680;48.800;9.680;2023-05-08T11:35:52;17.40;99.90
15160;DHT22;7680;48.800;9.680;2023-05-08T11:38:29;17.40;99.90
15160;DHT22;7680;48.800;9.680;2023-05-08T11:41:05;17.40;99.90
15160;DHT22;7680;48.800;9.680;2023-05-08T11:44:04;17.40;99.90
15160;DHT22;7680;48.800;9.680;2023-05-08T11:46:49;17.40;99.90
15160;DHT22;7680;48.800;9.680;2023-05-08T11:49:24;17.30;99.90
15160;DHT22;7680;48.800;9.680;2023-05-08T11:52:01;17.30;99.90
15160;DHT22;7680;48.800;9.680;2023-05-08T11:54:36;17.30;99.90
15160;DHT22;7680;48.800;9.680;2023-05-08T11:57:11;17.30;99.90
15160;DHT22;7680;48.800;9.680;2023-05-08T11:59:48;17.10;99.90
15160;DHT22;7680;48.800;9.680;2023-05-08T12:02:34;17.10;99.90
15160;DHT22;7680;48.800;9.680;2023-05-08T12:05:09;17.20;99.90
15160;DHT22;7680;48.800;9.680;2023-05-08T12:07:43;17.10;99.90
15160;DHT22;7680;48.800;9.680;2023-05-08T12:10:17;17.30;99.90
15160;DHT22;7680;48.800;9.680;2023-05-08T12:12:51;17.40;99.90
15160;DHT22;7680;48.800;9.680;2023-05-08T12:15:24;17.50;99.90
15160;DHT22;7680;48.800;9.680;2023-05-08T12:18:00;17.60;99.90
15160;DHT22;7680;48.800;9.680;2023-05-08T12:20:33;17.60;99.90
15160;DHT22;7680;48.800;9.680;2023-05-08T12:23:06;17.60;99.90
15160;DHT22;7680;48.800;9.680;2023-05-08T12:25:40;17.70;99.90
15160;DHT22;7680;48.800;9.680;2023-05-08T12:28:15;17.70;99.90
15160;DHT22;7680;48.800;9.680;2023-05-08T12:30:48;17.90;99.90
15160;DHT22;7680;48.800;9.680;2023-05-08T12:33:21;18.00;99.90
15160;DHT22;7680;48.800;9.680;2023-05-08T12:35:55;17.90;99.90
15160;DHT22;7680;48.800;9.680;2023-05-08T12:38:28;18.20;99.90
15160;DHT22;7680;48.800;9.680;2023-05-08T12:41:02;18.30;99.90
15160;DHT22;7680;48.800;9.680;2023-05-08T12:43:45;18.00;99.90
15160;DHT22;7680;48.800;9.680;2023-05-08T12:46:19;17.80;99.90
15160;DHT22;7680;48.800;9.680;2023-05-08T12:48:59;17.90;99.90
15160;DHT22;7680;48.800;9.680;2023-05-08T12:51:33;18.00;99.90
15160;DHT22;7680;48.800;9.680;2023-05-08T12:54:06;18.20;99.90
15160;DHT22;7680;48.800;9.680;2023-05-08T12:56:41;18.30;99.90
15160;DHT22;7680;48.800;9.680;2023-05-08T12:59:16;18.30;99.90
15160;DHT22;7680;48.800;9.680;2023-05-08T13:02:00;18.30;99.90
15160;DHT22;7680;48.800;9.680;2023-05-08T13:04:35;18.20;99.90
15160;DHT22;7680;48.800;9.680;2023-05-08T13:07:09;18.30;99.90
15160;DHT22;7680;48.800;9.680;2023-05-08T13:09:55;18.20;99.90
15160;DHT22;7680;48.800;9.680;2023-05-08T13:12:30;17.90;99.90
15160;DHT22;7680;48.800;9.680;2023-05-08T13:15:05;17.90;99.90
15160;DHT22;7680;48.800;9.680;2023-05-08T13:17:40;18.00;99.90
15160;DHT22;7680;48.800;9.680;2023-05-08T13:20:13;17.90;99.90
15160;DHT22;7680;48.800;9.680;2023-05-08T13:22:47;17.90;99.90
15160;DHT22;7680;48.800;9.680;2023-05-08T13:25:20;17.70;99.90
15160;DHT22;7680;48.800;9.680;2023-05-08T13:27:53;17.80;99.90
15160;DHT22;7680;48.800;9.680;2023-05-08T13:30:27;17.90;99.90
15160;DHT22;7680;48.800;9.680;2023-05-08T13:33:00;18.00;99.90
15160;DHT22;7680;48.800;9.680;2023-05-08T13:35:34;18.10;99.90
15160;DHT22;7680;48.800;9.680;2023-05-08T13:38:07;18.10;99.90
15160;DHT22;7680;48.800;9.680;2023-05-08T13:40:40;18.30;99.90
15160;DHT22;7680;48.800;9.680;2023-05-08T13:43:13;18.30;99.90
15160;DHT22;7680;48.800;9.680;2023-05-08T13:45:47;18.30;99.90
15160;DHT22;7680;48.800;9.680;2023-05-08T13:48:21;18.50;99.90
15160;DHT22;7680;48.800;9.680;2023-05-08T13:50:54;18.60;99.90
15160;DHT22;7680;48.800;9.680;2023-05-08T13:53:26;19.10;99.90
15160;DHT22;7680;48.800;9.680;2023-05-08T13:56:00;18.90;99.90
15160;DHT22;7680;48.800;9.680;2023-05-08T13:58:33;18.80;99.90
15160;DHT22;7680;48.800;9.680;2023-05-08T14:01:07;19.00;99.90
15160;DHT22;7680;48.800;9.680;2023-05-08T14:03:56;19.20;99.90
15160;DHT22;7680;48.800;9.680;2023-05-08T14:06:30;19.20;99.90
15160;DHT22;7680;48.800;9.680;2023-05-08T14:09:03;19.30;99.90
15160;DHT22;7680;48.800;9.680;2023-05-08T14:11:36;18.90;99.90
15160;DHT22;7680;48.800;9.680;2023-05-08T14:14:09;18.70;99.90
15160;DHT22;7680;48.800;9.680;2023-05-08T14:16:43;18.50;99.90
15160;DHT22;7680;48.800;9.680;2023-05-08T14:19:16;18.60;99.90
15160;DHT22;7680;48.800;9.680;2023-05-08T14:21:49;18.80;99.90
15160;DHT22;7680;48.800;9.680;2023-05-08T14:24:23;18.90;99.90
15160;DHT22;7680;48.800;9.680;2023-05-08T14:26:56;18.60;99.90
15160;DHT22;7680;48.800;9.680;2023-05-08T14:29:30;18.60;99.90
15160;DHT22;7680;48.800;9.680;2023-05-08T14:32:04;18.60;99.90
15160;DHT22;7680;48.800;9.680;2023-05-08T14:34:37;18.50;99.90
15160;DHT22;7680;48.800;9.680;2023-05-08T14:37:10;18.60;99.90
15160;DHT22;7680;48.800;9.680;2023-05-08T14:39:44;18.70;99.90
15160;DHT22;7680;48.800;9.680;2023-05-08T14:42:17;18.90;99.90
15160;DHT22;7680;48.800;9.680;2023-05-08T14:44:54;18.80;99.90
15160;DHT22;7680;48.800;9.680;2023-05-08T14:47:28;18.50;99.90
15160;DHT22;7680;48.800;9.680;2023-05-08T14:50:03;18.50;99.90
15160;DHT22;7680;48.800;9.680;2023-05-08T14:52:37;18.60;99.90
15160;DHT22;7680;48.800;9.680;2023-05-08T14:55:10;18.70;99.90
15160;DHT22;7680;48.800;9.680;2023-05-08T14:57:44;18.70;99.90
15160;DHT22;7680;48.800;9.680;2023-05-08T15:00:18;18.50;99.90
15160;DHT22;7680;48.800;9.680;2023-05-08T15:02:53;18.50;99.90
15160;DHT22;7680;48.800;9.680;2023-05-08T15:05:26;18.50;99.90
15160;DHT22;7680;48.800;9.680;2023-05-08T15:07:59;18.50;99.90
15160;DHT22;7680;48.800;9.680;2023-05-08T15:10:33;18.60;99.90
15160;DHT22;7680;48.800;9.680;2023-05-08T15:13:06;18.50;99.90
15160;DHT22;7680;48.800;9.680;2023-05-08T15:15:39;18.60;99.90
15160;DHT22;7680;48.800;9.680;2023-05-08T15:18:13;18.70;99.90
15160;DHT22;7680;48.800;9.680;2023-05-08T15:20:46;18.70;99.90
15160;DHT22;7680;48.800;9.680;2023-05-08T15:23:19;18.80;99.90
15160;DHT22;7680;48.800;9.680;2023-05-08T15:25:52;18.80;99.90
15160;DHT22;7680;48.800;9.680;2023-05-08T15:28:25;18.80;99.90
15160;DHT22;7680;48.800;9.680;2023-05-08T15:30:58;18.80;99.90
15160;DHT22;7680;48.800;9.680;2023-05-08T15:33:32;18.90;99.90
15160;DHT22;7680;48.800;9.680;2023-05-08T15:36:06;19.00;99.90
15160;DHT22;7680;48.800;9.680;2023-05-08T15:38:39;19.10;99.90
15160;DHT22;7680;48.800;9.680;2023-05-08T15:41:12;19.10;99.90
15160;DHT22;7680;48.800;9.680;2023-05-08T15:43:46;19.30;99.90
15160;DHT22;7680;48.800;9.680;2023-05-08T15:46:19;19.50;99.90
15160;DHT22;7680;48.800;9.680;2023-05-08T15:48:53;19.60;99.90
15160;DHT22;7680;48.800;9.680;2023-05-08T15:51:26;19.80;99.90
15160;DHT22;7680;48.800;9.680;2023-05-08T15:54:00;19.90;99.90
15160;DHT22;7680;48.800;9.680;2023-05-08T15:56:33;19.80;99.90
15160;DHT22;7680;48.800;9.680;2023-05-08T15:59:06;19.90;99.90
15160;DHT22;7680;48.800;9.680;2023-05-08T16:01:39;19.90;99.90
15160;DHT22;7680;48.800;9.680;2023-05-08T16:04:14;19.90;99.90
15160;DHT22;7680;48.800;9.680;2023-05-08T16:06:47;19.90;99.90
15160;DHT22;7680;48.800;9.680;2023-05-08T16:09:19;19.70;99.90
15160;DHT22;7680;48.800;9.680;2023-05-08T16:11:52;19.60;99.90
15160;DHT22;7680;48.800;9.680;2023-05-08T16:14:26;19.60;99.90
15160;DHT22;7680;48.800;9.680;2023-05-08T16:16:59;19.40;99.90
15160;DHT22;7680;48.800;9.680;2023-05-08T16:19:37;19.50;99.90
15160;DHT22;7680;48.800;9.680;2023-05-08T16:22:10;19.10;99.90
15160;DHT22;7680;48.800;9.680;2023-05-08T16:24:43;19.10;99.90
15160;DHT22;7680;48.800;9.680;2023-05-08T16:27:16;19.20;99.90
15160;DHT22;7680;48.800;9.680;2023-05-08T16:29:49;18.90;99.90
15160;DHT22;7680;48.800;9.680;2023-05-08T16:32:22;18.80;99.90
15160;DHT22;7680;48.800;9.680;2023-05-08T16:34:56;18.70;99.90
15160;DHT22;7680;48.800;9.680;2023-05-08T16:37:29;18.80;99.90